sensor_id;sensor_type;location;lat;lon;timestamp;P1;durP1;ratioP1;P2;durP2;ratioP2
24137;SDS011;17947;50.672;6.076;2022-10-16T00:02:00;2.88;;;1.42;;
24137;SDS011;17947;50.672;6.076;2022-10-16T00:04:26;2.95;;;1.58;;
24137;SDS011;17947;50.672;6.076;2022-10-16T00:06:52;2.10;;;1.27;;
24137;SDS011;17947;50.672;6.076;2022-10-16T00:09:18;3.75;;;1.63;;
24137;SDS011;17947;50.672;6.076;2022-10-16T00:11:44;2.15;;;1.50;;
24137;SDS011;17947;50.672;6.076;2022-10-16T00:14:12;3.30;;;1.60;;
24137;SDS011;17947;50.672;6.076;2022-10-16T00:16:38;2.50;;;1.40;;
24137;SDS011;17947;50.672;6.076;2022-10-16T00:19:04;2.90;;;1.50;;
24137;SDS011;17947;50.672;6.076;2022-10-16T00:21:31;3.47;;;1.27;;
24137;SDS011;17947;50.672;6.076;2022-10-16T00:23:59;2.10;;;1.38;;
24137;SDS011;17947;50.672;6.076;2022-10-16T00:26:27;1.77;;;1.27;;
24137;SDS011;17947;50.672;6.076;2022-10-16T00:28:53;1.98;;;1.20;;
24137;SDS011;17947;50.672;6.076;2022-10-16T00:31:19;1.67;;;1.20;;
24137;SDS011;17947;50.672;6.076;2022-10-16T00:33:46;2.42;;;1.35;;
24137;SDS011;17947;50.672;6.076;2022-10-16T00:36:13;1.33;;;1.08;;
24137;SDS011;17947;50.672;6.076;2022-10-16T00:38:39;2.33;;;1.27;;
24137;SDS011;17947;50.672;6.076;2022-10-16T00:41:06;2.33;;;1.30;;
24137;SDS011;17947;50.672;6.076;2022-10-16T00:46:02;2.42;;;1.10;;
24137;SDS011;17947;50.672;6.076;2022-10-16T00:48:28;1.75;;;1.10;;
24137;SDS011;17947;50.672;6.076;2022-10-16T00:50:55;2.85;;;1.30;;
24137;SDS011;17947;50.672;6.076;2022-10-16T00:53:21;2.45;;;1.35;;
24137;SDS011;17947;50.672;6.076;2022-10-16T00:55:47;1.85;;;1.25;;
24137;SDS011;17947;50.672;6.076;2022-10-16T00:58:13;1.90;;;1.20;;
24137;SDS011;17947;50.672;6.076;2022-10-16T01:00:39;1.50;;;1.10;;
24137;SDS011;17947;50.672;6.076;2022-10-16T01:03:21;1.88;;;1.20;;
24137;SDS011;17947;50.672;6.076;2022-10-16T01:05:49;1.30;;;1.02;;
24137;SDS011;17947;50.672;6.076;2022-10-16T01:08:21;1.80;;;1.20;;
24137;SDS011;17947;50.672;6.076;2022-10-16T01:13:37;1.67;;;1.15;;
24137;SDS011;17947;50.672;6.076;2022-10-16T01:16:11;1.40;;;0.93;;
24137;SDS011;17947;50.672;6.076;2022-10-16T01:18:39;1.67;;;0.95;;
24137;SDS011;17947;50.672;6.076;2022-10-16T01:21:21;1.60;;;1.10;;
24137;SDS011;17947;50.672;6.076;2022-10-16T01:26:25;1.02;;;0.90;;
24137;SDS011;17947;50.672;6.076;2022-10-16T01:29:00;1.40;;;0.98;;
24137;SDS011;17947;50.672;6.076;2022-10-16T01:31:29;1.63;;;1.08;;
24137;SDS011;17947;50.672;6.076;2022-10-16T01:34:16;1.30;;;1.10;;
24137;SDS011;17947;50.672;6.076;2022-10-16T01:36:53;0.88;;;0.88;;
24137;SDS011;17947;50.672;6.076;2022-10-16T01:39:22;1.60;;;1.02;;
24137;SDS011;17947;50.672;6.076;2022-10-16T01:41:49;1.20;;;0.98;;
24137;SDS011;17947;50.672;6.076;2022-10-16T01:44:19;1.20;;;0.88;;
24137;SDS011;17947;50.672;6.076;2022-10-16T01:46:46;1.50;;;1.02;;
24137;SDS011;17947;50.672;6.076;2022-10-16T01:49:14;1.33;;;1.10;;
24137;SDS011;17947;50.672;6.076;2022-10-16T01:51:40;1.33;;;0.88;;
24137;SDS011;17947;50.672;6.076;2022-10-16T01:54:08;1.50;;;0.95;;
24137;SDS011;17947;50.672;6.076;2022-10-16T01:56:34;2.55;;;1.20;;
24137;SDS011;17947;50.672;6.076;2022-10-16T01:59:01;0.85;;;0.70;;
24137;SDS011;17947;50.672;6.076;2022-10-16T02:01:30;1.08;;;0.85;;
24137;SDS011;17947;50.672;6.076;2022-10-16T02:03:58;1.25;;;0.80;;
24137;SDS011;17947;50.672;6.076;2022-10-16T02:06:25;1.15;;;0.80;;
24137;SDS011;17947;50.672;6.076;2022-10-16T02:08:51;1.30;;;0.90;;
24137;SDS011;17947;50.672;6.076;2022-10-16T02:11:17;1.40;;;0.73;;
24137;SDS011;17947;50.672;6.076;2022-10-16T02:13:44;1.30;;;0.90;;
24137;SDS011;17947;50.672;6.076;2022-10-16T02:16:12;0.85;;;0.80;;
24137;SDS011;17947;50.672;6.076;2022-10-16T02:18:39;1.50;;;1.00;;
24137;SDS011;17947;50.672;6.076;2022-10-16T02:23:55;1.50;;;1.02;;
24137;SDS011;17947;50.672;6.076;2022-10-16T02:26:30;0.77;;;0.75;;
24137;SDS011;17947;50.672;6.076;2022-10-16T02:29:00;0.60;;;0.60;;
24137;SDS011;17947;50.672;6.076;2022-10-16T02:31:30;1.55;;;0.90;;
24137;SDS011;17947;50.672;6.076;2022-10-16T02:33:59;0.75;;;0.60;;
24137;SDS011;17947;50.672;6.076;2022-10-16T02:36:26;1.17;;;0.80;;
24137;SDS011;17947;50.672;6.076;2022-10-16T02:38:52;1.38;;;0.80;;
24137;SDS011;17947;50.672;6.076;2022-10-16T02:41:20;1.30;;;0.70;;
24137;SDS011;17947;50.672;6.076;2022-10-16T02:43:47;0.70;;;0.70;;
24137;SDS011;17947;50.672;6.076;2022-10-16T02:46:14;1.60;;;0.70;;
24137;SDS011;17947;50.672;6.076;2022-10-16T02:48:40;0.85;;;0.70;;
24137;SDS011;17947;50.672;6.076;2022-10-16T02:51:06;0.63;;;0.60;;
24137;SDS011;17947;50.672;6.076;2022-10-16T02:53:32;1.27;;;0.70;;
24137;SDS011;17947;50.672;6.076;2022-10-16T02:55:58;0.60;;;0.60;;
24137;SDS011;17947;50.672;6.076;2022-10-16T02:58:24;0.63;;;0.60;;
24137;SDS011;17947;50.672;6.076;2022-10-16T03:00:50;0.70;;;0.70;;
24137;SDS011;17947;50.672;6.076;2022-10-16T03:03:16;0.70;;;0.65;;
24137;SDS011;17947;50.672;6.076;2022-10-16T03:05:43;0.80;;;0.68;;
24137;SDS011;17947;50.672;6.076;2022-10-16T03:08:10;0.75;;;0.75;;
24137;SDS011;17947;50.672;6.076;2022-10-16T03:10:36;0.95;;;0.85;;
24137;SDS011;17947;50.672;6.076;2022-10-16T03:13:02;0.68;;;0.63;;
24137;SDS011;17947;50.672;6.076;2022-10-16T03:15:28;0.93;;;0.70;;
24137;SDS011;17947;50.672;6.076;2022-10-16T03:17:56;2.83;;;0.75;;
24137;SDS011;17947;50.672;6.076;2022-10-16T03:20:23;1.10;;;0.73;;
24137;SDS011;17947;50.672;6.076;2022-10-16T03:22:49;0.93;;;0.68;;
24137;SDS011;17947;50.672;6.076;2022-10-16T03:25:15;0.73;;;0.65;;
24137;SDS011;17947;50.672;6.076;2022-10-16T03:27:41;0.88;;;0.73;;
24137;SDS011;17947;50.672;6.076;2022-10-16T03:30:07;1.00;;;0.55;;
24137;SDS011;17947;50.672;6.076;2022-10-16T03:32:34;0.75;;;0.60;;
24137;SDS011;17947;50.672;6.076;2022-10-16T03:35:00;0.77;;;0.77;;
24137;SDS011;17947;50.672;6.076;2022-10-16T03:37:26;0.60;;;0.60;;
24137;SDS011;17947;50.672;6.076;2022-10-16T03:39:51;0.70;;;0.60;;
24137;SDS011;17947;50.672;6.076;2022-10-16T03:42:18;0.55;;;0.55;;
24137;SDS011;17947;50.672;6.076;2022-10-16T03:44:44;0.63;;;0.63;;
24137;SDS011;17947;50.672;6.076;2022-10-16T03:47:10;0.68;;;0.60;;
24137;SDS011;17947;50.672;6.076;2022-10-16T03:49:36;0.68;;;0.60;;
24137;SDS011;17947;50.672;6.076;2022-10-16T03:52:02;0.73;;;0.73;;
24137;SDS011;17947;50.672;6.076;2022-10-16T03:54:28;0.60;;;0.60;;
24137;SDS011;17947;50.672;6.076;2022-10-16T03:56:54;0.80;;;0.60;;
24137;SDS011;17947;50.672;6.076;2022-10-16T03:59:20;0.70;;;0.70;;
24137;SDS011;17947;50.672;6.076;2022-10-16T04:01:46;0.65;;;0.60;;
24137;SDS011;17947;50.672;6.076;2022-10-16T04:04:12;0.57;;;0.50;;
24137;SDS011;17947;50.672;6.076;2022-10-16T04:06:37;0.68;;;0.50;;
24137;SDS011;17947;50.672;6.076;2022-10-16T04:09:03;0.40;;;0.40;;
24137;SDS011;17947;50.672;6.076;2022-10-16T04:11:30;0.40;;;0.40;;
24137;SDS011;17947;50.672;6.076;2022-10-16T04:13:56;0.47;;;0.47;;
24137;SDS011;17947;50.672;6.076;2022-10-16T04:16:22;0.52;;;0.52;;
24137;SDS011;17947;50.672;6.076;2022-10-16T04:18:48;0.52;;;0.47;;
24137;SDS011;17947;50.672;6.076;2022-10-16T04:21:14;0.65;;;0.65;;
24137;SDS011;17947;50.672;6.076;2022-10-16T04:23:39;0.70;;;0.50;;
24137;SDS011;17947;50.672;6.076;2022-10-16T04:26:05;0.60;;;0.60;;
24137;SDS011;17947;50.672;6.076;2022-10-16T04:28:31;0.93;;;0.70;;
24137;SDS011;17947;50.672;6.076;2022-10-16T04:30:57;0.68;;;0.68;;
24137;SDS011;17947;50.672;6.076;2022-10-16T04:33:23;0.73;;;0.57;;
24137;SDS011;17947;50.672;6.076;2022-10-16T04:35:55;0.40;;;0.40;;
24137;SDS011;17947;50.672;6.076;2022-10-16T04:38:21;0.60;;;0.60;;
24137;SDS011;17947;50.672;6.076;2022-10-16T04:40:47;0.60;;;0.60;;
24137;SDS011;17947;50.672;6.076;2022-10-16T04:43:13;0.70;;;0.70;;
24137;SDS011;17947;50.672;6.076;2022-10-16T04:45:39;0.70;;;0.70;;
24137;SDS011;17947;50.672;6.076;2022-10-16T04:48:05;0.57;;;0.55;;
24137;SDS011;17947;50.672;6.076;2022-10-16T04:50:31;0.95;;;0.70;;
24137;SDS011;17947;50.672;6.076;2022-10-16T04:52:57;0.52;;;0.50;;
24137;SDS011;17947;50.672;6.076;2022-10-16T04:55:23;0.55;;;0.55;;
24137;SDS011;17947;50.672;6.076;2022-10-16T04:57:50;0.47;;;0.47;;
24137;SDS011;17947;50.672;6.076;2022-10-16T05:00:16;0.50;;;0.50;;
24137;SDS011;17947;50.672;6.076;2022-10-16T05:02:42;0.40;;;0.40;;
24137;SDS011;17947;50.672;6.076;2022-10-16T05:05:08;0.63;;;0.57;;
24137;SDS011;17947;50.672;6.076;2022-10-16T05:07:34;0.50;;;0.50;;
24137;SDS011;17947;50.672;6.076;2022-10-16T05:10:00;0.65;;;0.45;;
24137;SDS011;17947;50.672;6.076;2022-10-16T05:12:26;0.60;;;0.60;;
24137;SDS011;17947;50.672;6.076;2022-10-16T05:14:52;0.50;;;0.50;;
24137;SDS011;17947;50.672;6.076;2022-10-16T05:17:23;0.70;;;0.60;;
24137;SDS011;17947;50.672;6.076;2022-10-16T05:19:49;0.60;;;0.40;;
24137;SDS011;17947;50.672;6.076;2022-10-16T05:22:15;0.47;;;0.40;;
24137;SDS011;17947;50.672;6.076;2022-10-16T05:24:41;0.50;;;0.50;;
24137;SDS011;17947;50.672;6.076;2022-10-16T05:27:07;0.50;;;0.50;;
24137;SDS011;17947;50.672;6.076;2022-10-16T05:29:33;1.42;;;0.52;;
24137;SDS011;17947;50.672;6.076;2022-10-16T05:32:00;0.55;;;0.50;;
24137;SDS011;17947;50.672;6.076;2022-10-16T05:34:26;0.60;;;0.43;;
24137;SDS011;17947;50.672;6.076;2022-10-16T05:36:52;0.60;;;0.50;;
24137;SDS011;17947;50.672;6.076;2022-10-16T05:39:18;1.10;;;0.60;;
24137;SDS011;17947;50.672;6.076;2022-10-16T05:41:44;0.52;;;0.50;;
24137;SDS011;17947;50.672;6.076;2022-10-16T05:44:10;0.50;;;0.50;;
24137;SDS011;17947;50.672;6.076;2022-10-16T05:46:36;0.55;;;0.50;;
24137;SDS011;17947;50.672;6.076;2022-10-16T05:49:02;0.40;;;0.40;;
24137;SDS011;17947;50.672;6.076;2022-10-16T05:51:28;0.57;;;0.57;;
24137;SDS011;17947;50.672;6.076;2022-10-16T05:53:54;0.40;;;0.40;;
24137;SDS011;17947;50.672;6.076;2022-10-16T05:56:20;0.52;;;0.50;;
24137;SDS011;17947;50.672;6.076;2022-10-16T05:58:46;0.52;;;0.50;;
24137;SDS011;17947;50.672;6.076;2022-10-16T06:01:16;0.50;;;0.50;;
24137;SDS011;17947;50.672;6.076;2022-10-16T06:03:42;0.52;;;0.52;;
24137;SDS011;17947;50.672;6.076;2022-10-16T06:08:35;0.50;;;0.50;;
24137;SDS011;17947;50.672;6.076;2022-10-16T06:11:02;1.75;;;0.40;;
24137;SDS011;17947;50.672;6.076;2022-10-16T06:13:28;0.40;;;0.40;;
24137;SDS011;17947;50.672;6.076;2022-10-16T06:15:56;0.40;;;0.40;;
24137;SDS011;17947;50.672;6.076;2022-10-16T06:18:22;0.50;;;0.43;;
24137;SDS011;17947;50.672;6.076;2022-10-16T06:20:48;0.60;;;0.60;;
24137;SDS011;17947;50.672;6.076;2022-10-16T06:23:14;0.50;;;0.50;;
24137;SDS011;17947;50.672;6.076;2022-10-16T06:25:40;0.60;;;0.47;;
24137;SDS011;17947;50.672;6.076;2022-10-16T06:28:06;0.50;;;0.50;;
24137;SDS011;17947;50.672;6.076;2022-10-16T06:30:32;0.40;;;0.40;;
24137;SDS011;17947;50.672;6.076;2022-10-16T06:32:58;0.40;;;0.40;;
24137;SDS011;17947;50.672;6.076;2022-10-16T06:35:24;0.30;;;0.30;;
24137;SDS011;17947;50.672;6.076;2022-10-16T06:37:52;0.50;;;0.50;;
24137;SDS011;17947;50.672;6.076;2022-10-16T06:40:18;0.50;;;0.50;;
24137;SDS011;17947;50.672;6.076;2022-10-16T06:42:44;0.50;;;0.50;;
24137;SDS011;17947;50.672;6.076;2022-10-16T06:45:10;0.50;;;0.50;;
24137;SDS011;17947;50.672;6.076;2022-10-16T06:47:37;0.60;;;0.60;;
24137;SDS011;17947;50.672;6.076;2022-10-16T06:50:03;0.40;;;0.40;;
24137;SDS011;17947;50.672;6.076;2022-10-16T06:52:31;0.40;;;0.40;;
24137;SDS011;17947;50.672;6.076;2022-10-16T06:54:58;0.50;;;0.40;;
24137;SDS011;17947;50.672;6.076;2022-10-16T06:57:24;0.40;;;0.40;;
24137;SDS011;17947;50.672;6.076;2022-10-16T06:59:50;0.50;;;0.50;;
24137;SDS011;17947;50.672;6.076;2022-10-16T07:02:16;0.40;;;0.40;;
24137;SDS011;17947;50.672;6.076;2022-10-16T07:04:42;0.40;;;0.40;;
24137;SDS011;17947;50.672;6.076;2022-10-16T07:07:08;0.63;;;0.50;;
24137;SDS011;17947;50.672;6.076;2022-10-16T07:09:34;0.50;;;0.50;;
24137;SDS011;17947;50.672;6.076;2022-10-16T07:12:00;0.47;;;0.45;;
24137;SDS011;17947;50.672;6.076;2022-10-16T07:14:26;0.45;;;0.45;;
24137;SDS011;17947;50.672;6.076;2022-10-16T07:16:52;0.38;;;0.38;;
24137;SDS011;17947;50.672;6.076;2022-10-16T07:19:18;0.47;;;0.47;;
24137;SDS011;17947;50.672;6.076;2022-10-16T07:21:44;0.40;;;0.40;;
24137;SDS011;17947;50.672;6.076;2022-10-16T07:24:12;0.40;;;0.40;;
24137;SDS011;17947;50.672;6.076;2022-10-16T07:26:38;0.40;;;0.40;;
24137;SDS011;17947;50.672;6.076;2022-10-16T07:29:06;0.40;;;0.40;;
24137;SDS011;17947;50.672;6.076;2022-10-16T07:31:32;0.30;;;0.30;;
24137;SDS011;17947;50.672;6.076;2022-10-16T07:33:59;0.70;;;0.40;;
24137;SDS011;17947;50.672;6.076;2022-10-16T07:36:25;0.30;;;0.30;;
24137;SDS011;17947;50.672;6.076;2022-10-16T07:38:51;0.70;;;0.50;;
24137;SDS011;17947;50.672;6.076;2022-10-16T07:41:18;1.65;;;0.50;;
24137;SDS011;17947;50.672;6.076;2022-10-16T07:43:45;4.90;;;0.60;;
24137;SDS011;17947;50.672;6.076;2022-10-16T07:46:12;1.45;;;0.55;;
24137;SDS011;17947;50.672;6.076;2022-10-16T07:48:38;1.42;;;0.73;;
24137;SDS011;17947;50.672;6.076;2022-10-16T07:51:05;1.08;;;0.80;;
24137;SDS011;17947;50.672;6.076;2022-10-16T07:53:31;1.55;;;0.60;;
24137;SDS011;17947;50.672;6.076;2022-10-16T07:55:58;0.65;;;0.65;;
24137;SDS011;17947;50.672;6.076;2022-10-16T07:58:24;0.95;;;0.50;;
24137;SDS011;17947;50.672;6.076;2022-10-16T08:00:50;0.70;;;0.70;;
24137;SDS011;17947;50.672;6.076;2022-10-16T08:03:16;2.85;;;0.65;;
24137;SDS011;17947;50.672;6.076;2022-10-16T08:05:42;0.70;;;0.70;;
24137;SDS011;17947;50.672;6.076;2022-10-16T08:08:11;1.17;;;0.60;;
24137;SDS011;17947;50.672;6.076;2022-10-16T08:10:38;0.80;;;0.77;;
24137;SDS011;17947;50.672;6.076;2022-10-16T08:13:04;0.77;;;0.57;;
24137;SDS011;17947;50.672;6.076;2022-10-16T08:15:30;0.65;;;0.65;;
24137;SDS011;17947;50.672;6.076;2022-10-16T08:17:57;1.13;;;0.55;;
24137;SDS011;17947;50.672;6.076;2022-10-16T08:20:23;0.70;;;0.60;;
24137;SDS011;17947;50.672;6.076;2022-10-16T08:22:49;0.57;;;0.57;;
24137;SDS011;17947;50.672;6.076;2022-10-16T08:25:15;0.40;;;0.40;;
24137;SDS011;17947;50.672;6.076;2022-10-16T08:27:41;1.10;;;0.60;;
24137;SDS011;17947;50.672;6.076;2022-10-16T08:30:08;0.55;;;0.40;;
24137;SDS011;17947;50.672;6.076;2022-10-16T08:32:35;1.08;;;0.60;;
24137;SDS011;17947;50.672;6.076;2022-10-16T08:35:01;1.67;;;0.70;;
24137;SDS011;17947;50.672;6.076;2022-10-16T08:37:30;0.60;;;0.60;;
24137;SDS011;17947;50.672;6.076;2022-10-16T08:39:57;0.55;;;0.55;;
24137;SDS011;17947;50.672;6.076;2022-10-16T08:42:29;0.57;;;0.50;;
24137;SDS011;17947;50.672;6.076;2022-10-16T08:50:11;1.15;;;0.50;;
24137;SDS011;17947;50.672;6.076;2022-10-16T08:52:41;0.45;;;0.45;;
24137;SDS011;17947;50.672;6.076;2022-10-16T08:55:17;0.57;;;0.50;;
24137;SDS011;17947;50.672;6.076;2022-10-16T08:57:46;0.40;;;0.40;;
24137;SDS011;17947;50.672;6.076;2022-10-16T09:00:13;0.73;;;0.60;;
24137;SDS011;17947;50.672;6.076;2022-10-16T09:02:49;0.60;;;0.60;;
24137;SDS011;17947;50.672;6.076;2022-10-16T09:08:00;0.50;;;0.50;;
24137;SDS011;17947;50.672;6.076;2022-10-16T09:10:31;0.40;;;0.40;;
24137;SDS011;17947;50.672;6.076;2022-10-16T09:13:09;0.82;;;0.50;;
24137;SDS011;17947;50.672;6.076;2022-10-16T09:21:46;0.85;;;0.60;;
24137;SDS011;17947;50.672;6.076;2022-10-16T09:23:40;1.25;;;0.65;;
24137;SDS011;17947;50.672;6.076;2022-10-16T09:26:09;2.17;;;0.70;;
24137;SDS011;17947;50.672;6.076;2022-10-16T09:28:37;0.65;;;0.60;;
24137;SDS011;17947;50.672;6.076;2022-10-16T09:31:03;2.00;;;0.50;;
24137;SDS011;17947;50.672;6.076;2022-10-16T09:33:30;1.20;;;0.60;;
24137;SDS011;17947;50.672;6.076;2022-10-16T09:35:58;1.25;;;0.50;;
24137;SDS011;17947;50.672;6.076;2022-10-16T09:38:26;1.90;;;0.60;;
24137;SDS011;17947;50.672;6.076;2022-10-16T09:40:53;1.70;;;0.50;;
24137;SDS011;17947;50.672;6.076;2022-10-16T09:45:59;1.63;;;0.60;;
24137;SDS011;17947;50.672;6.076;2022-10-16T09:48:27;1.35;;;0.50;;
24137;SDS011;17947;50.672;6.076;2022-10-16T09:51:00;1.08;;;0.60;;
24137;SDS011;17947;50.672;6.076;2022-10-16T09:53:37;4.70;;;0.60;;
24137;SDS011;17947;50.672;6.076;2022-10-16T09:56:04;0.80;;;0.45;;
24137;SDS011;17947;50.672;6.076;2022-10-16T09:58:31;1.95;;;0.50;;
24137;SDS011;17947;50.672;6.076;2022-10-16T10:00:58;1.52;;;0.77;;
24137;SDS011;17947;50.672;6.076;2022-10-16T10:03:37;0.60;;;0.60;;
24137;SDS011;17947;50.672;6.076;2022-10-16T10:06:16;0.60;;;0.60;;
24137;SDS011;17947;50.672;6.076;2022-10-16T10:08:53;1.20;;;0.50;;
24137;SDS011;17947;50.672;6.076;2022-10-16T10:11:35;0.60;;;0.60;;
24137;SDS011;17947;50.672;6.076;2022-10-16T10:14:05;0.73;;;0.40;;
24137;SDS011;17947;50.672;6.076;2022-10-16T10:16:32;0.75;;;0.63;;
24137;SDS011;17947;50.672;6.076;2022-10-16T10:19:00;0.57;;;0.57;;
24137;SDS011;17947;50.672;6.076;2022-10-16T10:21:26;1.23;;;0.60;;
24137;SDS011;17947;50.672;6.076;2022-10-16T10:23:56;0.40;;;0.40;;
24137;SDS011;17947;50.672;6.076;2022-10-16T10:26:23;1.73;;;0.80;;
24137;SDS011;17947;50.672;6.076;2022-10-16T10:31:57;3.38;;;0.60;;
24137;SDS011;17947;50.672;6.076;2022-10-16T10:37:02;2.17;;;0.50;;
24137;SDS011;17947;50.672;6.076;2022-10-16T10:39:32;0.60;;;0.55;;
24137;SDS011;17947;50.672;6.076;2022-10-16T10:42:15;1.63;;;0.80;;
24137;SDS011;17947;50.672;6.076;2022-10-16T10:47:36;1.23;;;0.60;;
24137;SDS011;17947;50.672;6.076;2022-10-16T10:52:57;1.05;;;0.52;;
24137;SDS011;17947;50.672;6.076;2022-10-16T11:05:52;0.73;;;0.47;;
24137;SDS011;17947;50.672;6.076;2022-10-16T11:08:25;1.92;;;0.63;;
24137;SDS011;17947;50.672;6.076;2022-10-16T11:10:54;0.70;;;0.57;;
24137;SDS011;17947;50.672;6.076;2022-10-16T11:13:28;1.08;;;0.60;;
24137;SDS011;17947;50.672;6.076;2022-10-16T11:16:01;0.52;;;0.35;;
24137;SDS011;17947;50.672;6.076;2022-10-16T11:21:14;2.20;;;0.57;;
24137;SDS011;17947;50.672;6.076;2022-10-16T11:26:20;0.68;;;0.52;;
24137;SDS011;17947;50.672;6.076;2022-10-16T11:28:54;1.42;;;0.60;;
24137;SDS011;17947;50.672;6.076;2022-10-16T11:34:04;1.52;;;0.55;;
24137;SDS011;17947;50.672;6.076;2022-10-16T11:38:59;1.02;;;0.50;;
24137;SDS011;17947;50.672;6.076;2022-10-16T11:41:28;1.20;;;0.40;;
24137;SDS011;17947;50.672;6.076;2022-10-16T11:46:24;0.73;;;0.50;;
24137;SDS011;17947;50.672;6.076;2022-10-16T11:48:54;0.88;;;0.50;;
24137;SDS011;17947;50.672;6.076;2022-10-16T11:53:55;0.50;;;0.50;;
24137;SDS011;17947;50.672;6.076;2022-10-16T11:56:23;0.80;;;0.60;;
24137;SDS011;17947;50.672;6.076;2022-10-16T11:59:00;0.80;;;0.60;;
24137;SDS011;17947;50.672;6.076;2022-10-16T12:06:57;1.13;;;0.68;;
24137;SDS011;17947;50.672;6.076;2022-10-16T12:09:26;1.35;;;0.60;;
24137;SDS011;17947;50.672;6.076;2022-10-16T12:11:52;0.40;;;0.40;;
24137;SDS011;17947;50.672;6.076;2022-10-16T12:14:22;0.50;;;0.50;;
24137;SDS011;17947;50.672;6.076;2022-10-16T12:17:04;0.50;;;0.50;;
24137;SDS011;17947;50.672;6.076;2022-10-16T12:19:56;0.40;;;0.40;;
24137;SDS011;17947;50.672;6.076;2022-10-16T12:22:28;0.50;;;0.50;;
24137;SDS011;17947;50.672;6.076;2022-10-16T12:24:55;1.55;;;0.65;;
24137;SDS011;17947;50.672;6.076;2022-10-16T12:27:24;0.52;;;0.40;;
24137;SDS011;17947;50.672;6.076;2022-10-16T12:29:57;0.60;;;0.50;;
24137;SDS011;17947;50.672;6.076;2022-10-16T12:32:36;0.90;;;0.70;;
24137;SDS011;17947;50.672;6.076;2022-10-16T12:35:04;1.55;;;0.52;;
24137;SDS011;17947;50.672;6.076;2022-10-16T12:37:32;0.40;;;0.40;;
24137;SDS011;17947;50.672;6.076;2022-10-16T12:39:59;2.13;;;0.60;;
24137;SDS011;17947;50.672;6.076;2022-10-16T12:44:55;0.77;;;0.60;;
24137;SDS011;17947;50.672;6.076;2022-10-16T12:49:56;0.43;;;0.43;;
24137;SDS011;17947;50.672;6.076;2022-10-16T12:52:27;0.98;;;0.57;;
24137;SDS011;17947;50.672;6.076;2022-10-16T12:54:57;0.52;;;0.50;;
24137;SDS011;17947;50.672;6.076;2022-10-16T13:00:07;0.90;;;0.50;;
24137;SDS011;17947;50.672;6.076;2022-10-16T13:05:24;0.57;;;0.50;;
24137;SDS011;17947;50.672;6.076;2022-10-16T13:13:10;0.68;;;0.50;;
24137;SDS011;17947;50.672;6.076;2022-10-16T13:28:32;0.65;;;0.60;;
24137;SDS011;17947;50.672;6.076;2022-10-16T13:30:59;0.45;;;0.30;;
24137;SDS011;17947;50.672;6.076;2022-10-16T13:33:36;0.65;;;0.50;;
24137;SDS011;17947;50.672;6.076;2022-10-16T13:36:03;0.57;;;0.45;;
24137;SDS011;17947;50.672;6.076;2022-10-16T13:38:30;0.50;;;0.50;;
24137;SDS011;17947;50.672;6.076;2022-10-16T13:46:12;0.52;;;0.40;;
24137;SDS011;17947;50.672;6.076;2022-10-16T13:48:39;0.52;;;0.35;;
24137;SDS011;17947;50.672;6.076;2022-10-16T13:51:17;0.63;;;0.45;;
24137;SDS011;17947;50.672;6.076;2022-10-16T13:53:44;0.88;;;0.40;;
24137;SDS011;17947;50.672;6.076;2022-10-16T13:56:12;0.50;;;0.50;;
24137;SDS011;17947;50.672;6.076;2022-10-16T13:58:38;0.50;;;0.40;;
24137;SDS011;17947;50.672;6.076;2022-10-16T14:01:06;1.15;;;0.40;;
24137;SDS011;17947;50.672;6.076;2022-10-16T14:03:40;0.90;;;0.60;;
24137;SDS011;17947;50.672;6.076;2022-10-16T14:06:10;0.40;;;0.40;;
24137;SDS011;17947;50.672;6.076;2022-10-16T14:08:40;0.40;;;0.40;;
24137;SDS011;17947;50.672;6.076;2022-10-16T14:11:08;0.40;;;0.40;;
24137;SDS011;17947;50.672;6.076;2022-10-16T14:13:36;0.60;;;0.60;;
24137;SDS011;17947;50.672;6.076;2022-10-16T14:16:05;0.70;;;0.45;;
24137;SDS011;17947;50.672;6.076;2022-10-16T14:18:32;0.98;;;0.55;;
24137;SDS011;17947;50.672;6.076;2022-10-16T14:21:02;0.50;;;0.50;;
24137;SDS011;17947;50.672;6.076;2022-10-16T14:23:29;0.50;;;0.50;;
24137;SDS011;17947;50.672;6.076;2022-10-16T14:26:06;0.40;;;0.40;;
24137;SDS011;17947;50.672;6.076;2022-10-16T14:28:32;0.40;;;0.30;;
24137;SDS011;17947;50.672;6.076;2022-10-16T14:30:59;0.40;;;0.40;;
24137;SDS011;17947;50.672;6.076;2022-10-16T14:36:13;0.45;;;0.40;;
24137;SDS011;17947;50.672;6.076;2022-10-16T14:38:42;0.47;;;0.40;;
24137;SDS011;17947;50.672;6.076;2022-10-16T14:41:08;0.30;;;0.30;;
24137;SDS011;17947;50.672;6.076;2022-10-16T14:46:01;0.73;;;0.35;;
24137;SDS011;17947;50.672;6.076;2022-10-16T14:48:28;0.68;;;0.30;;
24137;SDS011;17947;50.672;6.076;2022-10-16T14:50:54;0.30;;;0.30;;
24137;SDS011;17947;50.672;6.076;2022-10-16T14:53:20;0.52;;;0.45;;
24137;SDS011;17947;50.672;6.076;2022-10-16T14:55:46;0.30;;;0.30;;
24137;SDS011;17947;50.672;6.076;2022-10-16T14:58:20;0.32;;;0.30;;
24137;SDS011;17947;50.672;6.076;2022-10-16T15:00:47;0.30;;;0.30;;
24137;SDS011;17947;50.672;6.076;2022-10-16T15:03:13;0.43;;;0.40;;
24137;SDS011;17947;50.672;6.076;2022-10-16T15:05:39;0.75;;;0.50;;
24137;SDS011;17947;50.672;6.076;2022-10-16T15:08:05;0.30;;;0.30;;
24137;SDS011;17947;50.672;6.076;2022-10-16T15:10:33;0.45;;;0.45;;
24137;SDS011;17947;50.672;6.076;2022-10-16T15:13:01;0.40;;;0.40;;
24137;SDS011;17947;50.672;6.076;2022-10-16T15:15:37;0.30;;;0.30;;
24137;SDS011;17947;50.672;6.076;2022-10-16T15:18:06;0.30;;;0.30;;
24137;SDS011;17947;50.672;6.076;2022-10-16T15:20:35;0.40;;;0.40;;
24137;SDS011;17947;50.672;6.076;2022-10-16T15:23:03;1.48;;;0.40;;
24137;SDS011;17947;50.672;6.076;2022-10-16T15:28:08;0.40;;;0.40;;
24137;SDS011;17947;50.672;6.076;2022-10-16T15:30:35;0.47;;;0.40;;
24137;SDS011;17947;50.672;6.076;2022-10-16T15:33:02;0.43;;;0.43;;
24137;SDS011;17947;50.672;6.076;2022-10-16T15:35:28;0.40;;;0.40;;
24137;SDS011;17947;50.672;6.076;2022-10-16T15:37:54;0.45;;;0.40;;
24137;SDS011;17947;50.672;6.076;2022-10-16T15:40:21;0.43;;;0.40;;
24137;SDS011;17947;50.672;6.076;2022-10-16T15:42:48;0.40;;;0.40;;
24137;SDS011;17947;50.672;6.076;2022-10-16T15:45:14;0.30;;;0.30;;
24137;SDS011;17947;50.672;6.076;2022-10-16T15:47:41;0.30;;;0.30;;
24137;SDS011;17947;50.672;6.076;2022-10-16T15:50:09;0.40;;;0.40;;
24137;SDS011;17947;50.672;6.076;2022-10-16T15:52:36;0.45;;;0.45;;
24137;SDS011;17947;50.672;6.076;2022-10-16T15:55:04;0.40;;;0.40;;
24137;SDS011;17947;50.672;6.076;2022-10-16T15:57:30;0.30;;;0.30;;
24137;SDS011;17947;50.672;6.076;2022-10-16T15:59:56;0.40;;;0.40;;
24137;SDS011;17947;50.672;6.076;2022-10-16T16:02:22;0.40;;;0.40;;
24137;SDS011;17947;50.672;6.076;2022-10-16T16:04:48;0.85;;;0.30;;
24137;SDS011;17947;50.672;6.076;2022-10-16T16:07:14;0.57;;;0.40;;
24137;SDS011;17947;50.672;6.076;2022-10-16T16:09:40;0.30;;;0.30;;
24137;SDS011;17947;50.672;6.076;2022-10-16T16:12:06;0.32;;;0.32;;
24137;SDS011;17947;50.672;6.076;2022-10-16T16:14:32;0.40;;;0.40;;
24137;SDS011;17947;50.672;6.076;2022-10-16T16:16:58;0.60;;;0.52;;
24137;SDS011;17947;50.672;6.076;2022-10-16T16:19:24;0.32;;;0.32;;
24137;SDS011;17947;50.672;6.076;2022-10-16T16:21:50;0.45;;;0.40;;
24137;SDS011;17947;50.672;6.076;2022-10-16T16:24:17;0.40;;;0.40;;
24137;SDS011;17947;50.672;6.076;2022-10-16T16:26:43;0.40;;;0.40;;
24137;SDS011;17947;50.672;6.076;2022-10-16T16:29:13;0.40;;;0.40;;
24137;SDS011;17947;50.672;6.076;2022-10-16T16:31:39;0.35;;;0.35;;
24137;SDS011;17947;50.672;6.076;2022-10-16T16:34:05;0.32;;;0.32;;
24137;SDS011;17947;50.672;6.076;2022-10-16T16:36:32;1.20;;;0.40;;
24137;SDS011;17947;50.672;6.076;2022-10-16T16:38:58;1.02;;;0.50;;
24137;SDS011;17947;50.672;6.076;2022-10-16T16:41:26;0.40;;;0.40;;
24137;SDS011;17947;50.672;6.076;2022-10-16T16:43:53;1.92;;;0.43;;
24137;SDS011;17947;50.672;6.076;2022-10-16T16:46:20;6.03;;;0.80;;